sensor_id;sensor_type;location;lat;lon;timestamp;pressure;altitude;pressure_sealevel;temperature;humidity
18201;BME280;9226;47.858;9.594;2024-01-15T00:00:41;94140.41;;;0.90;79.85
18201;BME280;9226;47.858;9.594;2024-01-15T00:03:07;94148.72;;;0.97;79.58
18201;BME280;9226;47.858;9.594;2024-01-15T00:05:33;94159.50;;;1.05;79.48
18201;BME280;9226;47.858;9.594;2024-01-15T00:07:58;94150.16;;;1.01;79.11
18201;BME280;9226;47.858;9.594;2024-01-15T00:10:23;94150.31;;;1.12;78.97
18201;BME280;9226;47.858;9.594;2024-01-15T00:12:49;94152.50;;;1.18;78.66
18201;BME280;9226;47.858;9.594;2024-01-15T00:15:15;94158.13;;;1.12;78.40
18201;BME280;9226;47.858;9.594;2024-01-15T00:17:40;94155.88;;;1.20;78.40
18201;BME280;9226;47.858;9.594;2024-01-15T00:20:06;94138.72;;;1.16;77.64
18201;BME280;9226;47.858;9.594;2024-01-15T00:22:32;94144.34;;;1.10;77.89
18201;BME280;9226;47.858;9.594;2024-01-15T00:24:58;94135.19;;;1.17;78.22
18201;BME280;9226;47.858;9.594;2024-01-15T00:27:23;94137.34;;;1.11;77.61
18201;BME280;9226;47.858;9.594;2024-01-15T00:29:49;94136.72;;;1.07;77.83
18201;BME280;9226;47.858;9.594;2024-01-15T00:32:16;94138.94;;;1.13;77.37
18201;BME280;9226;47.858;9.594;2024-01-15T00:34:42;94136.91;;;1.04;77.39
18201;BME280;9226;47.858;9.594;2024-01-15T00:37:07;94141.00;;;1.08;77.44
18201;BME280;9226;47.858;9.594;2024-01-15T00:39:33;94137.63;;;1.06;76.89
18201;BME280;9226;47.858;9.594;2024-01-15T00:41:58;94124.56;;;1.06;77.19
18201;BME280;9226;47.858;9.594;2024-01-15T00:44:24;94115.72;;;1.08;76.59
18201;BME280;9226;47.858;9.594;2024-01-15T00:46:49;94116.75;;;1.06;76.55
18201;BME280;9226;47.858;9.594;2024-01-15T00:49:15;94122.31;;;1.14;77.09
18201;BME280;9226;47.858;9.594;2024-01-15T00:51:41;94108.31;;;1.15;76.88
18201;BME280;9226;47.858;9.594;2024-01-15T00:54:07;94123.06;;;1.16;76.97
18201;BME280;9226;47.858;9.594;2024-01-15T00:56:32;94125.03;;;1.13;76.65
18201;BME280;9226;47.858;9.594;2024-01-15T00:58:58;94125.03;;;1.13;76.53
18201;BME280;9226;47.858;9.594;2024-01-15T01:01:23;94126.41;;;1.18;76.79
18201;BME280;9226;47.858;9.594;2024-01-15T01:03:49;94120.13;;;1.21;76.62
18201;BME280;9226;47.858;9.594;2024-01-15T01:06:14;94120.44;;;1.16;76.67
18201;BME280;9226;47.858;9.594;2024-01-15T01:08:39;94129.41;;;1.12;76.37
18201;BME280;9226;47.858;9.594;2024-01-15T01:11:05;94138.41;;;1.08;76.27
18201;BME280;9226;47.858;9.594;2024-01-15T01:13:32;94135.78;;;1.08;76.57
18201;BME280;9226;47.858;9.594;2024-01-15T01:15:58;94146.16;;;0.82;75.67
18201;BME280;9226;47.858;9.594;2024-01-15T01:18:23;94148.75;;;0.82;76.60
18201;BME280;9226;47.858;9.594;2024-01-15T01:20:49;94160.75;;;0.85;76.59
18201;BME280;9226;47.858;9.594;2024-01-15T01:23:14;94166.75;;;0.72;76.31
18201;BME280;9226;47.858;9.594;2024-01-15T01:25:40;94175.34;;;0.75;76.55
18201;BME280;9226;47.858;9.594;2024-01-15T01:28:05;94163.72;;;0.51;77.06
18201;BME280;9226;47.858;9.594;2024-01-15T01:30:31;94172.28;;;0.53;77.43
18201;BME280;9226;47.858;9.594;2024-01-15T01:32:56;94169.78;;;0.52;77.29
18201;BME280;9226;47.858;9.594;2024-01-15T01:35:22;94175.00;;;0.52;77.21
18201;BME280;9226;47.858;9.594;2024-01-15T01:37:48;94182.91;;;0.50;77.12
18201;BME280;9226;47.858;9.594;2024-01-15T01:40:13;94191.34;;;0.41;77.10
18201;BME280;9226;47.858;9.594;2024-01-15T01:42:39;94193.19;;;0.39;77.20
18201;BME280;9226;47.858;9.594;2024-01-15T01:45:05;94192.47;;;0.23;77.25
18201;BME280;9226;47.858;9.594;2024-01-15T01:47:31;94198.41;;;0.25;77.59
18201;BME280;9226;47.858;9.594;2024-01-15T01:49:56;94195.44;;;0.16;77.55
18201;BME280;9226;47.858;9.594;2024-01-15T01:52:22;94194.69;;;0.14;77.34
18201;BME280;9226;47.858;9.594;2024-01-15T01:54:48;94199.16;;;0.12;77.28
18201;BME280;9226;47.858;9.594;2024-01-15T01:57:14;94203.91;;;0.06;77.07
18201;BME280;9226;47.858;9.594;2024-01-15T01:59:40;94206.97;;;-0.02;77.13
18201;BME280;9226;47.858;9.594;2024-01-15T02:02:06;94202.88;;;-0.06;77.12
18201;BME280;9226;47.858;9.594;2024-01-15T02:04:31;94196.91;;;-0.08;76.80
18201;BME280;9226;47.858;9.594;2024-01-15T02:06:59;94187.59;;;-0.12;76.76
18201;BME280;9226;47.858;9.594;2024-01-15T02:09:25;94185.91;;;-0.13;76.66
18201;BME280;9226;47.858;9.594;2024-01-15T02:11:50;94188.16;;;-0.22;76.90
18201;BME280;9226;47.858;9.594;2024-01-15T02:14:16;94188.31;;;-0.25;76.78
18201;BME280;9226;47.858;9.594;2024-01-15T02:16:42;94193.50;;;-0.39;76.48
18201;BME280;9226;47.858;9.594;2024-01-15T02:19:14;94184.00;;;-0.40;76.54
18201;BME280;9226;47.858;9.594;2024-01-15T02:21:40;94190.53;;;-0.47;76.60
18201;BME280;9226;47.858;9.594;2024-01-15T02:24:05;94189.78;;;-0.35;76.84
18201;BME280;9226;47.858;9.594;2024-01-15T02:26:31;94186.25;;;-0.34;76.77
18201;BME280;9226;47.858;9.594;2024-01-15T02:29:01;94189.59;;;-0.32;76.32
18201;BME280;9226;47.858;9.594;2024-01-15T02:31:27;94184.38;;;-0.32;76.72
18201;BME280;9226;47.858;9.594;2024-01-15T02:33:52;94185.25;;;-0.31;76.50
18201;BME280;9226;47.858;9.594;2024-01-15T02:36:18;94182.94;;;-0.22;76.65
18201;BME280;9226;47.858;9.594;2024-01-15T02:38:43;94179.88;;;-0.14;76.37
18201;BME280;9226;47.858;9.594;2024-01-15T02:41:09;94187.41;;;-0.09;75.83
18201;BME280;9226;47.858;9.594;2024-01-15T02:43:34;94178.19;;;-0.15;75.31
18201;BME280;9226;47.858;9.594;2024-01-15T02:46:00;94172.41;;;-0.20;74.92
18201;BME280;9226;47.858;9.594;2024-01-15T02:48:25;94162.63;;;-0.16;75.33
18201;BME280;9226;47.858;9.594;2024-01-15T02:50:51;94164.06;;;-0.11;75.09
18201;BME280;9226;47.858;9.594;2024-01-15T02:53:16;94161.53;;;-0.12;74.49
18201;BME280;9226;47.858;9.594;2024-01-15T02:55:41;94158.66;;;-0.22;74.42
18201;BME280;9226;47.858;9.594;2024-01-15T02:58:07;94167.56;;;-0.26;73.79
18201;BME280;9226;47.858;9.594;2024-01-15T03:00:32;94161.88;;;-0.33;73.35
18201;BME280;9226;47.858;9.594;2024-01-15T03:02:58;94162.81;;;-0.34;73.94
18201;BME280;9226;47.858;9.594;2024-01-15T03:05:23;94158.59;;;-0.37;73.99
18201;BME280;9226;47.858;9.594;2024-01-15T03:07:49;94160.72;;;-0.43;73.83
18201;BME280;9226;47.858;9.594;2024-01-15T03:10:14;94162.59;;;-0.45;73.75
18201;BME280;9226;47.858;9.594;2024-01-15T03:12:40;94159.91;;;-0.44;74.02
18201;BME280;9226;47.858;9.594;2024-01-15T03:15:05;94154.03;;;-0.47;73.24
18201;BME280;9226;47.858;9.594;2024-01-15T03:17:31;94156.31;;;-0.57;73.43
18201;BME280;9226;47.858;9.594;2024-01-15T03:19:56;94156.25;;;-0.56;73.88
18201;BME280;9226;47.858;9.594;2024-01-15T03:22:22;94160.88;;;-0.61;73.33
18201;BME280;9226;47.858;9.594;2024-01-15T03:24:47;94165.19;;;-0.60;73.66
18201;BME280;9226;47.858;9.594;2024-01-15T03:27:13;94165.53;;;-0.66;73.28
18201;BME280;9226;47.858;9.594;2024-01-15T03:29:39;94162.19;;;-0.68;73.44
18201;BME280;9226;47.858;9.594;2024-01-15T03:32:05;94173.34;;;-0.66;73.97
18201;BME280;9226;47.858;9.594;2024-01-15T03:34:30;94165.53;;;-0.66;73.99
18201;BME280;9226;47.858;9.594;2024-01-15T03:36:56;94152.16;;;-0.60;73.82
18201;BME280;9226;47.858;9.594;2024-01-15T03:39:21;94147.38;;;-0.67;73.70
18201;BME280;9226;47.858;9.594;2024-01-15T03:41:47;94140.00;;;-0.75;73.39
18201;BME280;9226;47.858;9.594;2024-01-15T03:44:12;94144.03;;;-0.69;73.86
18201;BME280;9226;47.858;9.594;2024-01-15T03:46:37;94134.09;;;-0.63;74.14
18201;BME280;9226;47.858;9.594;2024-01-15T03:49:03;94145.25;;;-0.61;73.85
18201;BME280;9226;47.858;9.594;2024-01-15T03:51:28;94137.25;;;-0.58;73.69
18201;BME280;9226;47.858;9.594;2024-01-15T03:53:54;94143.88;;;-0.66;73.30
18201;BME280;9226;47.858;9.594;2024-01-15T03:56:19;94151.00;;;-0.70;73.17
18201;BME280;9226;47.858;9.594;2024-01-15T03:58:45;94152.81;;;-0.56;73.83
18201;BME280;9226;47.858;9.594;2024-01-15T04:01:10;94149.66;;;-0.47;74.03
18201;BME280;9226;47.858;9.594;2024-01-15T04:03:36;94135.63;;;-0.44;73.43
18201;BME280;9226;47.858;9.594;2024-01-15T04:06:03;94145.19;;;-0.45;73.28
18201;BME280;9226;47.858;9.594;2024-01-15T04:08:28;94141.31;;;-0.38;73.32
18201;BME280;9226;47.858;9.594;2024-01-15T04:10:53;94143.91;;;-0.38;73.15
18201;BME280;9226;47.858;9.594;2024-01-15T04:13:20;94148.94;;;-0.34;73.46
18201;BME280;9226;47.858;9.594;2024-01-15T04:15:45;94157.31;;;-0.29;73.33
18201;BME280;9226;47.858;9.594;2024-01-15T04:18:11;94156.66;;;-0.33;73.15
18201;BME280;9226;47.858;9.594;2024-01-15T04:20:36;94144.38;;;-0.31;72.87
18201;BME280;9226;47.858;9.594;2024-01-15T04:23:02;94140.09;;;-0.32;72.61
18201;BME280;9226;47.858;9.594;2024-01-15T04:25:27;94137.28;;;-0.29;72.83
18201;BME280;9226;47.858;9.594;2024-01-15T04:27:53;94135.47;;;-0.27;73.06
18201;BME280;9226;47.858;9.594;2024-01-15T04:30:18;94134.06;;;-0.18;73.16
18201;BME280;9226;47.858;9.594;2024-01-15T04:32:44;94138.63;;;-0.22;72.29
18201;BME280;9226;47.858;9.594;2024-01-15T04:35:09;94138.34;;;-0.17;72.71
18201;BME280;9226;47.858;9.594;2024-01-15T04:37:35;94134.88;;;-0.17;72.52
18201;BME280;9226;47.858;9.594;2024-01-15T04:40:00;94132.56;;;-0.22;72.04
18201;BME280;9226;47.858;9.594;2024-01-15T04:42:25;94137.56;;;-0.19;72.11
18201;BME280;9226;47.858;9.594;2024-01-15T04:44:51;94144.75;;;-0.08;72.82
18201;BME280;9226;47.858;9.594;2024-01-15T04:47:17;94148.78;;;-0.03;73.35
18201;BME280;9226;47.858;9.594;2024-01-15T04:49:42;94137.44;;;-0.02;72.72
18201;BME280;9226;47.858;9.594;2024-01-15T04:52:08;94141.22;;;-0.07;72.37
18201;BME280;9226;47.858;9.594;2024-01-15T04:54:36;94142.53;;;-0.14;71.79
18201;BME280;9226;47.858;9.594;2024-01-15T04:57:01;94138.25;;;-0.15;72.08
18201;BME280;9226;47.858;9.594;2024-01-15T04:59:27;94146.72;;;-0.26;71.31
18201;BME280;9226;47.858;9.594;2024-01-15T05:01:53;94138.91;;;-0.26;71.45
18201;BME280;9226;47.858;9.594;2024-01-15T05:04:18;94129.84;;;-0.21;72.06
18201;BME280;9226;47.858;9.594;2024-01-15T05:06:44;94131.91;;;-0.26;71.50
18201;BME280;9226;47.858;9.594;2024-01-15T05:09:09;94128.19;;;-0.22;71.64
18201;BME280;9226;47.858;9.594;2024-01-15T05:11:34;94136.75;;;-0.20;71.73
18201;BME280;9226;47.858;9.594;2024-01-15T05:14:00;94144.94;;;-0.11;72.10
18201;BME280;9226;47.858;9.594;2024-01-15T05:16:25;94137.88;;;-0.09;71.88
18201;BME280;9226;47.858;9.594;2024-01-15T05:18:51;94155.19;;;-0.08;71.44
18201;BME280;9226;47.858;9.594;2024-01-15T05:21:16;94146.63;;;-0.10;71.78
18201;BME280;9226;47.858;9.594;2024-01-15T05:23:41;94148.13;;;-0.06;71.96
18201;BME280;9226;47.858;9.594;2024-01-15T05:26:07;94143.38;;;0.01;72.00
18201;BME280;9226;47.858;9.594;2024-01-15T05:28:34;94137.63;;;-0.05;71.71
18201;BME280;9226;47.858;9.594;2024-01-15T05:30:59;94136.84;;;-0.07;71.97
18201;BME280;9226;47.858;9.594;2024-01-15T05:33:25;94149.59;;;-0.02;71.94
18201;BME280;9226;47.858;9.594;2024-01-15T05:35:50;94145.53;;;0.08;72.37
18201;BME280;9226;47.858;9.594;2024-01-15T05:38:16;94149.22;;;0.04;72.02
18201;BME280;9226;47.858;9.594;2024-01-15T05:40:42;94149.59;;;0.12;72.26
18201;BME280;9226;47.858;9.594;2024-01-15T05:43:07;94127.63;;;0.16;72.44
18201;BME280;9226;47.858;9.594;2024-01-15T05:45:34;94124.94;;;0.18;72.00
18201;BME280;9226;47.858;9.594;2024-01-15T05:48:00;94129.84;;;0.23;71.95
18201;BME280;9226;47.858;9.594;2024-01-15T05:50:25;94125.38;;;0.25;72.29
18201;BME280;9226;47.858;9.594;2024-01-15T05:52:50;94124.09;;;0.17;71.44
18201;BME280;9226;47.858;9.594;2024-01-15T05:55:16;94120.88;;;0.27;71.90
18201;BME280;9226;47.858;9.594;2024-01-15T05:57:43;94123.50;;;0.27;71.58
18201;BME280;9226;47.858;9.594;2024-01-15T06:00:09;94129.75;;;0.24;71.42
18201;BME280;9226;47.858;9.594;2024-01-15T06:02:35;94130.31;;;0.29;71.78
18201;BME280;9226;47.858;9.594;2024-01-15T06:05:02;94123.97;;;0.33;71.73
18201;BME280;9226;47.858;9.594;2024-01-15T06:07:28;94115.59;;;0.28;71.22
18201;BME280;9226;47.858;9.594;2024-01-15T06:09:53;94116.44;;;0.29;71.33
18201;BME280;9226;47.858;9.594;2024-01-15T06:12:19;94126.78;;;0.30;71.16
18201;BME280;9226;47.858;9.594;2024-01-15T06:14:44;94119.41;;;0.37;71.66
18201;BME280;9226;47.858;9.594;2024-01-15T06:17:10;94113.84;;;0.29;71.02
18201;BME280;9226;47.858;9.594;2024-01-15T06:19:36;94117.34;;;0.28;70.77
18201;BME280;9226;47.858;9.594;2024-01-15T06:22:01;94096.13;;;0.20;70.14
18201;BME280;9226;47.858;9.594;2024-01-15T06:24:27;94098.19;;;0.29;70.94
18201;BME280;9226;47.858;9.594;2024-01-15T06:26:52;94118.84;;;0.32;70.93
18201;BME280;9226;47.858;9.594;2024-01-15T06:29:18;94127.97;;;0.39;71.36
18201;BME280;9226;47.858;9.594;2024-01-15T06:31:43;94133.38;;;0.36;70.80
18201;BME280;9226;47.858;9.594;2024-01-15T06:34:09;94126.50;;;0.35;70.77
18201;BME280;9226;47.858;9.594;2024-01-15T06:36:34;94127.22;;;0.37;70.90
18201;BME280;9226;47.858;9.594;2024-01-15T06:39:00;94118.47;;;0.24;70.12
18201;BME280;9226;47.858;9.594;2024-01-15T06:41:25;94115.50;;;0.15;70.62
18201;BME280;9226;47.858;9.594;2024-01-15T06:43:51;94110.66;;;0.24;70.76
18201;BME280;9226;47.858;9.594;2024-01-15T06:46:23;94109.91;;;0.22;70.86
18201;BME280;9226;47.858;9.594;2024-01-15T06:48:49;94100.31;;;0.22;70.99
18201;BME280;9226;47.858;9.594;2024-01-15T06:51:15;94107.13;;;0.25;71.20
18201;BME280;9226;47.858;9.594;2024-01-15T06:53:41;94107.41;;;0.20;71.02
18201;BME280;9226;47.858;9.594;2024-01-15T06:56:06;94110.28;;;0.15;71.47
18201;BME280;9226;47.858;9.594;2024-01-15T06:58:32;94111.78;;;0.20;71.55
18201;BME280;9226;47.858;9.594;2024-01-15T07:00:58;94115.13;;;0.22;71.76
18201;BME280;9226;47.858;9.594;2024-01-15T07:03:23;94111.31;;;0.27;72.02
18201;BME280;9226;47.858;9.594;2024-01-15T07:05:49;94119.63;;;0.20;71.59
18201;BME280;9226;47.858;9.594;2024-01-15T07:08:14;94120.63;;;0.17;72.00
18201;BME280;9226;47.858;9.594;2024-01-15T07:10:40;94124.56;;;0.24;72.05
18201;BME280;9226;47.858;9.594;2024-01-15T07:13:05;94117.06;;;0.32;71.90
18201;BME280;9226;47.858;9.594;2024-01-15T07:15:31;94114.56;;;0.31;72.03
18201;BME280;9226;47.858;9.594;2024-01-15T07:17:56;94104.38;;;0.41;71.98
18201;BME280;9226;47.858;9.594;2024-01-15T07:20:22;94097.69;;;0.37;72.06
18201;BME280;9226;47.858;9.594;2024-01-15T07:22:47;94102.63;;;0.41;72.18
18201;BME280;9226;47.858;9.594;2024-01-15T07:25:13;94107.28;;;0.36;71.80
18201;BME280;9226;47.858;9.594;2024-01-15T07:27:38;94113.84;;;0.29;72.02
18201;BME280;9226;47.858;9.594;2024-01-15T07:30:04;94111.22;;;0.29;71.92
18201;BME280;9226;47.858;9.594;2024-01-15T07:32:31;94110.75;;;0.22;72.08
18201;BME280;9226;47.858;9.594;2024-01-15T07:34:57;94097.91;;;0.33;71.91
18201;BME280;9226;47.858;9.594;2024-01-15T07:37:24;94113.69;;;0.45;72.21
18201;BME280;9226;47.858;9.594;2024-01-15T07:39:50;94109.41;;;0.44;72.09
18201;BME280;9226;47.858;9.594;2024-01-15T07:42:15;94118.72;;;0.48;72.40
18201;BME280;9226;47.858;9.594;2024-01-15T07:44:41;94117.44;;;0.41;72.15
18201;BME280;9226;47.858;9.594;2024-01-15T07:47:06;94119.94;;;0.42;72.01
18201;BME280;9226;47.858;9.594;2024-01-15T07:49:33;94115.34;;;0.46;72.16
18201;BME280;9226;47.858;9.594;2024-01-15T07:51:59;94115.06;;;0.50;72.26
18201;BME280;9226;47.858;9.594;2024-01-15T07:54:25;94115.53;;;0.57;72.01
18201;BME280;9226;47.858;9.594;2024-01-15T07:56:55;94121.97;;;0.51;72.22
18201;BME280;9226;47.858;9.594;2024-01-15T07:59:21;94125.69;;;0.47;72.19
18201;BME280;9226;47.858;9.594;2024-01-15T08:01:46;94132.41;;;0.51;72.33
18201;BME280;9226;47.858;9.594;2024-01-15T08:04:12;94124.94;;;0.60;72.24
18201;BME280;9226;47.858;9.594;2024-01-15T08:06:38;94126.63;;;0.61;72.58
18201;BME280;9226;47.858;9.594;2024-01-15T08:09:04;94124.53;;;0.66;72.41
18201;BME280;9226;47.858;9.594;2024-01-15T08:11:29;94117.28;;;0.57;72.22
18201;BME280;9226;47.858;9.594;2024-01-15T08:13:55;94122.81;;;0.52;72.24
18201;BME280;9226;47.858;9.594;2024-01-15T08:16:21;94124.69;;;0.50;72.28
18201;BME280;9226;47.858;9.594;2024-01-15T08:18:47;94128.50;;;0.59;72.40
18201;BME280;9226;47.858;9.594;2024-01-15T08:21:12;94122.03;;;0.64;72.44
18201;BME280;9226;47.858;9.594;2024-01-15T08:23:38;94126.44;;;0.64;72.27
18201;BME280;9226;47.858;9.594;2024-01-15T08:26:04;94124.88;;;0.74;72.56
18201;BME280;9226;47.858;9.594;2024-01-15T08:28:29;94136.66;;;0.67;72.33
18201;BME280;9226;47.858;9.594;2024-01-15T08:30:56;94136.38;;;0.71;72.33
18201;BME280;9226;47.858;9.594;2024-01-15T08:33:21;94131.06;;;0.73;72.45
18201;BME280;9226;47.858;9.594;2024-01-15T08:35:46;94128.78;;;0.81;72.46
18201;BME280;9226;47.858;9.594;2024-01-15T08:38:12;94129.34;;;0.86;72.19
18201;BME280;9226;47.858;9.594;2024-01-15T08:40:37;94131.13;;;0.86;72.21
18201;BME280;9226;47.858;9.594;2024-01-15T08:43:03;94133.81;;;0.84;72.28
18201;BME280;9226;47.858;9.594;2024-01-15T08:45:28;94139.88;;;0.85;72.04
18201;BME280;9226;47.858;9.594;2024-01-15T08:47:54;94137.16;;;0.86;71.85
18201;BME280;9226;47.858;9.594;2024-01-15T08:50:19;94131.06;;;0.73;71.66
18201;BME280;9226;47.858;9.594;2024-01-15T08:52:45;94141.25;;;0.90;71.89
18201;BME280;9226;47.858;9.594;2024-01-15T08:55:11;94146.91;;;0.97;71.81
18201;BME280;9226;47.858;9.594;2024-01-15T08:57:38;94137.78;;;0.63;71.33
18201;BME280;9226;47.858;9.594;2024-01-15T09:00:04;94139.25;;;0.81;72.17
18201;BME280;9226;47.858;9.594;2024-01-15T09:02:33;94134.66;;;0.85;72.01
18201;BME280;9226;47.858;9.594;2024-01-15T09:04:59;94139.47;;;0.91;71.95
18201;BME280;9226;47.858;9.594;2024-01-15T09:07:24;94143.63;;;0.81;71.68
18201;BME280;9226;47.858;9.594;2024-01-15T09:09:52;94138.75;;;0.89;71.69
18201;BME280;9226;47.858;9.594;2024-01-15T09:12:17;94137.56;;;0.80;71.93
18201;BME280;9226;47.858;9.594;2024-01-15T09:14:44;94139.69;;;0.88;71.75
18201;BME280;9226;47.858;9.594;2024-01-15T09:17:09;94139.78;;;0.86;71.53
18201;BME280;9226;47.858;9.594;2024-01-15T09:19:35;94140.06;;;0.82;71.65
18201;BME280;9226;47.858;9.594;2024-01-15T09:22:00;94136.38;;;0.99;71.77
18201;BME280;9226;47.858;9.594;2024-01-15T09:24:26;94138.16;;;0.98;71.61
18201;BME280;9226;47.858;9.594;2024-01-15T09:26:51;94129.75;;;0.93;71.15
18201;BME280;9226;47.858;9.594;2024-01-15T09:29:17;94137.78;;;0.90;71.26
18201;BME280;9226;47.858;9.594;2024-01-15T09:31:43;94136.13;;;0.89;71.32
18201;BME280;9226;47.858;9.594;2024-01-15T09:34:09;94128.25;;;0.76;71.44
18201;BME280;9226;47.858;9.594;2024-01-15T09:36:44;94123.97;;;0.75;71.53
18201;BME280;9226;47.858;9.594;2024-01-15T09:39:09;94121.94;;;0.66;72.45
18201;BME280;9226;47.858;9.594;2024-01-15T09:41:39;94119.19;;;0.54;73.02
18201;BME280;9226;47.858;9.594;2024-01-15T09:44:05;94111.53;;;0.51;73.26
18201;BME280;9226;47.858;9.594;2024-01-15T09:46:33;94105.69;;;0.48;73.52
18201;BME280;9226;47.858;9.594;2024-01-15T09:49:00;94109.28;;;0.60;73.46
18201;BME280;9226;47.858;9.594;2024-01-15T09:51:29;94113.13;;;0.54;73.52
18201;BME280;9226;47.858;9.594;2024-01-15T09:53:57;94121.22;;;0.64;73.60
18201;BME280;9226;47.858;9.594;2024-01-15T09:56:22;94119.97;;;0.69;73.42
18201;BME280;9226;47.858;9.594;2024-01-15T09:58:48;94112.03;;;0.71;73.32
18201;BME280;9226;47.858;9.594;2024-01-15T10:01:14;94115.00;;;0.79;73.12
18201;BME280;9226;47.858;9.594;2024-01-15T10:03:42;94112.41;;;0.65;73.17
18201;BME280;9226;47.858;9.594;2024-01-15T10:06:08;94120.56;;;0.60;73.45
18201;BME280;9226;47.858;9.594;2024-01-15T10:08:36;94112.59;;;0.76;73.17
18201;BME280;9226;47.858;9.594;2024-01-15T10:11:02;94105.78;;;0.74;73.03
18201;BME280;9226;47.858;9.594;2024-01-15T10:13:30;94103.41;;;0.83;72.86
18201;BME280;9226;47.858;9.594;2024-01-15T10:15:55;94097.06;;;0.87;72.52
18201;BME280;9226;47.858;9.594;2024-01-15T10:18:21;94092.38;;;0.93;72.45
18201;BME280;9226;47.858;9.594;2024-01-15T10:20:47;94095.13;;;1.04;71.96
18201;BME280;9226;47.858;9.594;2024-01-15T10:23:14;94098.47;;;1.06;71.72
18201;BME280;9226;47.858;9.594;2024-01-15T10:25:42;94093.78;;;1.11;71.73
18201;BME280;9226;47.858;9.594;2024-01-15T10:28:07;94097.34;;;1.10;71.43
18201;BME280;9226;47.858;9.594;2024-01-15T10:30:33;94093.59;;;1.14;71.72
18201;BME280;9226;47.858;9.594;2024-01-15T10:33:03;94086.91;;;1.23;71.33
18201;BME280;9226;47.858;9.594;2024-01-15T10:35:35;94084.72;;;1.30;70.78
18201;BME280;9226;47.858;9.594;2024-01-15T10:38:01;94069.47;;;1.23;71.01
18201;BME280;9226;47.858;9.594;2024-01-15T10:40:27;94059.13;;;1.22;70.79
18201;BME280;9226;47.858;9.594;2024-01-15T10:42:53;94053.22;;;1.05;71.06
18201;BME280;9226;47.858;9.594;2024-01-15T10:45:19;94051.25;;;1.09;71.16
18201;BME280;9226;47.858;9.594;2024-01-15T10:47:44;94047.72;;;1.10;71.18
18201;BME280;9226;47.858;9.594;2024-01-15T10:50:10;94035.50;;;1.23;71.08
18201;BME280;9226;47.858;9.594;2024-01-15T10:52:37;94043.47;;;1.22;71.06
18201;BME280;9226;47.858;9.594;2024-01-15T10:55:03;94040.94;;;1.20;70.84
18201;BME280;9226;47.858;9.594;2024-01-15T10:57:30;94035.22;;;1.41;70.71
18201;BME280;9226;47.858;9.594;2024-01-15T10:59:56;94033.13;;;1.33;70.17
18201;BME280;9226;47.858;9.594;2024-01-15T11:02:21;94027.69;;;1.36;70.35
18201;BME280;9226;47.858;9.594;2024-01-15T11:04:47;94023.78;;;1.42;70.47
18201;BME280;9226;47.858;9.594;2024-01-15T11:07:13;94026.94;;;1.60;70.17
18201;BME280;9226;47.858;9.594;2024-01-15T11:09:39;94027.25;;;1.68;70.14
18201;BME280;9226;47.858;9.594;2024-01-15T11:12:10;94021.66;;;1.98;70.04
18201;BME280;9226;47.858;9.594;2024-01-15T11:14:40;94020.97;;;2.45;69.16
18201;BME280;9226;47.858;9.594;2024-01-15T11:17:09;94015.75;;;3.04;67.67
18201;BME280;9226;47.858;9.594;2024-01-15T11:19:38;94008.00;;;3.72;65.68
18201;BME280;9226;47.858;9.594;2024-01-15T11:25:22;93998.88;;;5.09;61.37
18201;BME280;9226;47.858;9.594;2024-01-15T11:27:49;93983.25;;;5.59;58.49
18201;BME280;9226;47.858;9.594;2024-01-15T11:30:19;93978.28;;;6.18;57.59
18201;BME280;9226;47.858;9.594;2024-01-15T11:32:48;93973.59;;;6.31;54.24
18201;BME280;9226;47.858;9.594;2024-01-15T11:35:14;93973.91;;;6.58;53.50
18201;BME280;9226;47.858;9.594;2024-01-15T11:40:19;93975.59;;;6.68;51.43
18201;BME280;9226;47.858;9.594;2024-01-15T11:42:45;93964.63;;;6.54;51.93
18201;BME280;9226;47.858;9.594;2024-01-15T11:45:13;93957.59;;;6.74;51.84
18201;BME280;9226;47.858;9.594;2024-01-15T11:50:29;93976.28;;;6.51;51.26
18201;BME280;9226;47.858;9.594;2024-01-15T11:53:00;93969.91;;;6.63;51.92
18201;BME280;9226;47.858;9.594;2024-01-15T11:55:33;93975.31;;;6.52;50.97
18201;BME280;9226;47.858;9.594;2024-01-15T11:58:01;93971.19;;;6.88;49.79
18201;BME280;9226;47.858;9.594;2024-01-15T12:00:28;93965.91;;;6.88;49.06
18201;BME280;9226;47.858;9.594;2024-01-15T12:02:54;93974.25;;;7.13;50.36
18201;BME280;9226;47.858;9.594;2024-01-15T12:05:20;93981.16;;;7.14;49.03
18201;BME280;9226;47.858;9.594;2024-01-15T12:07:47;93971.88;;;7.20;48.79
18201;BME280;9226;47.858;9.594;2024-01-15T12:10:18;93975.63;;;6.98;48.21
18201;BME280;9226;47.858;9.594;2024-01-15T12:13:15;93972.56;;;7.22;48.86
18201;BME280;9226;47.858;9.594;2024-01-15T12:15:42;93968.25;;;7.21;48.56
18201;BME280;9226;47.858;9.594;2024-01-15T12:18:09;93975.88;;;7.24;48.76
18201;BME280;9226;47.858;9.594;2024-01-15T12:20:35;93971.75;;;7.12;48.10
18201;BME280;9226;47.858;9.594;2024-01-15T12:23:01;93971.19;;;6.98;48.05
18201;BME280;9226;47.858;9.594;2024-01-15T12:25:29;93971.59;;;6.64;48.60
18201;BME280;9226;47.858;9.594;2024-01-15T12:27:55;93963.09;;;6.41;48.60
18201;BME280;9226;47.858;9.594;2024-01-15T12:30:20;93956.66;;;6.24;49.37
18201;BME280;9226;47.858;9.594;2024-01-15T12:32:46;93953.56;;;6.00;50.33
18201;BME280;9226;47.858;9.594;2024-01-15T12:35:13;93944.84;;;5.78;50.86
18201;BME280;9226;47.858;9.594;2024-01-15T12:37:42;93944.19;;;5.55;50.83
18201;BME280;9226;47.858;9.594;2024-01-15T12:40:09;93941.75;;;5.11;51.81
18201;BME280;9226;47.858;9.594;2024-01-15T12:42:44;93941.78;;;4.79;51.31
18201;BME280;9226;47.858;9.594;2024-01-15T12:45:11;93957.56;;;4.79;52.62
18201;BME280;9226;47.858;9.594;2024-01-15T12:47:38;93957.97;;;4.95;53.27
18201;BME280;9226;47.858;9.594;2024-01-15T12:50:11;93942.72;;;4.57;53.21
18201;BME280;9226;47.858;9.594;2024-01-15T12:52:37;93942.47;;;4.60;54.44
18201;BME280;9226;47.858;9.594;2024-01-15T12:55:07;93965.00;;;4.41;54.09
18201;BME280;9226;47.858;9.594;2024-01-15T12:57:34;93961.41;;;4.42;54.06
18201;BME280;9226;47.858;9.594;2024-01-15T13:00:00;93960.19;;;4.46;54.31
18201;BME280;9226;47.858;9.594;2024-01-15T13:02:25;93957.50;;;4.37;53.62
18201;BME280;9226;47.858;9.594;2024-01-15T13:04:51;93945.31;;;4.35;53.81
18201;BME280;9226;47.858;9.594;2024-01-15T13:07:16;93955.84;;;4.24;53.98
18201;BME280;9226;47.858;9.594;2024-01-15T13:09:42;93959.75;;;4.30;54.12
18201;BME280;9226;47.858;9.594;2024-01-15T13:12:08;93965.13;;;4.40;54.08
18201;BME280;9226;47.858;9.594;2024-01-15T13:14:34;93950.03;;;4.21;53.74
18201;BME280;9226;47.858;9.594;2024-01-15T13:16:59;93957.13;;;4.30;53.61
18201;BME280;9226;47.858;9.594;2024-01-15T13:19:25;93954.13;;;4.34;53.46
18201;BME280;9226;47.858;9.594;2024-01-15T13:21:50;93953.56;;;4.31;53.80